sensor_id;sensor_type;location;lat;lon;timestamp;pressure;altitude;pressure_sealevel;temperature;humidity
57628;BME280;43451;49.060;10.616;2023-02-18T00:00:15;97528.50;;;9.12;100.00
57628;BME280;43451;49.060;10.616;2023-02-18T00:02:45;97531.09;;;9.04;100.00
57628;BME280;43451;49.060;10.616;2023-02-18T00:05:11;97536.03;;;8.99;100.00
57628;BME280;43451;49.060;10.616;2023-02-18T00:07:38;97535.66;;;9.00;100.00
57628;BME280;43451;49.060;10.616;2023-02-18T00:10:05;97530.13;;;9.16;100.00
57628;BME280;43451;49.060;10.616;2023-02-18T00:12:31;97531.94;;;9.09;100.00
57628;BME280;43451;49.060;10.616;2023-02-18T00:14:57;97534.75;;;9.16;100.00
57628;BME280;43451;49.060;10.616;2023-02-18T00:17:23;97529.94;;;9.05;100.00
57628;BME280;43451;49.060;10.616;2023-02-18T00:19:48;97536.47;;;9.01;100.00
57628;BME280;43451;49.060;10.616;2023-02-18T00:22:14;97529.78;;;8.95;100.00
57628;BME280;43451;49.060;10.616;2023-02-18T00:24:39;97533.50;;;8.87;100.00
57628;BME280;43451;49.060;10.616;2023-02-18T00:27:05;97527.34;;;8.90;100.00
57628;BME280;43451;49.060;10.616;2023-02-18T00:29:31;97524.75;;;8.97;100.00
57628;BME280;43451;49.060;10.616;2023-02-18T00:31:56;97530.25;;;9.00;100.00
57628;BME280;43451;49.060;10.616;2023-02-18T00:34:22;97534.03;;;8.96;100.00
57628;BME280;43451;49.060;10.616;2023-02-18T00:36:47;97535.91;;;8.92;100.00
57628;BME280;43451;49.060;10.616;2023-02-18T00:39:13;97530.84;;;8.90;100.00
57628;BME280;43451;49.060;10.616;2023-02-18T00:41:39;97536.13;;;8.83;100.00
57628;BME280;43451;49.060;10.616;2023-02-18T00:44:05;97529.78;;;8.95;100.00
57628;BME280;43451;49.060;10.616;2023-02-18T00:46:31;97525.66;;;8.81;100.00
57628;BME280;43451;49.060;10.616;2023-02-18T00:48:57;97528.22;;;8.74;100.00
57628;BME280;43451;49.060;10.616;2023-02-18T00:51:23;97526.13;;;8.87;100.00
57628;BME280;43451;49.060;10.616;2023-02-18T00:53:49;97520.78;;;8.91;100.00
57628;BME280;43451;49.060;10.616;2023-02-18T00:56:14;97526.19;;;8.91;100.00
57628;BME280;43451;49.060;10.616;2023-02-18T00:58:40;97527.56;;;8.81;100.00
57628;BME280;43451;49.060;10.616;2023-02-18T01:01:06;97524.00;;;8.54;100.00
57628;BME280;43451;49.060;10.616;2023-02-18T01:03:32;97519.16;;;8.63;100.00
57628;BME280;43451;49.060;10.616;2023-02-18T01:05:58;97526.47;;;8.63;100.00
57628;BME280;43451;49.060;10.616;2023-02-18T01:08:23;97530.31;;;8.62;100.00
57628;BME280;43451;49.060;10.616;2023-02-18T01:10:53;97532.25;;;8.61;100.00
57628;BME280;43451;49.060;10.616;2023-02-18T01:13:19;97524.78;;;8.54;100.00
57628;BME280;43451;49.060;10.616;2023-02-18T01:15:44;97525.56;;;8.55;100.00
57628;BME280;43451;49.060;10.616;2023-02-18T01:18:11;97526.00;;;8.57;100.00
57628;BME280;43451;49.060;10.616;2023-02-18T01:20:38;97521.28;;;8.54;100.00
57628;BME280;43451;49.060;10.616;2023-02-18T01:23:04;97517.72;;;8.50;100.00
57628;BME280;43451;49.060;10.616;2023-02-18T01:25:30;97515.00;;;8.50;100.00
57628;BME280;43451;49.060;10.616;2023-02-18T01:27:56;97513.88;;;8.51;100.00
57628;BME280;43451;49.060;10.616;2023-02-18T01:30:22;97516.16;;;8.49;100.00
57628;BME280;43451;49.060;10.616;2023-02-18T01:32:47;97521.84;;;8.63;100.00
57628;BME280;43451;49.060;10.616;2023-02-18T01:35:15;97504.66;;;8.55;100.00
57628;BME280;43451;49.060;10.616;2023-02-18T01:37:41;97513.34;;;8.65;100.00
57628;BME280;43451;49.060;10.616;2023-02-18T01:40:09;97516.13;;;8.68;100.00
57628;BME280;43451;49.060;10.616;2023-02-18T01:42:35;97504.44;;;8.64;100.00
57628;BME280;43451;49.060;10.616;2023-02-18T01:48:16;97511.88;;;8.48;100.00
57628;BME280;43451;49.060;10.616;2023-02-18T01:50:55;97515.44;;;8.52;100.00
57628;BME280;43451;49.060;10.616;2023-02-18T01:53:27;97509.69;;;8.53;100.00
57628;BME280;43451;49.060;10.616;2023-02-18T01:55:56;97510.03;;;8.52;100.00
57628;BME280;43451;49.060;10.616;2023-02-18T01:58:22;97508.25;;;8.40;100.00
57628;BME280;43451;49.060;10.616;2023-02-18T02:00:48;97509.16;;;8.28;100.00
57628;BME280;43451;49.060;10.616;2023-02-18T02:03:14;97503.31;;;8.26;100.00
57628;BME280;43451;49.060;10.616;2023-02-18T02:05:39;97499.03;;;8.25;100.00
57628;BME280;43451;49.060;10.616;2023-02-18T02:08:05;97503.09;;;8.35;100.00
57628;BME280;43451;49.060;10.616;2023-02-18T02:10:43;97501.69;;;8.41;100.00
57628;BME280;43451;49.060;10.616;2023-02-18T02:16:16;97482.50;;;8.30;100.00
57628;BME280;43451;49.060;10.616;2023-02-18T02:37:30;97469.47;;;8.36;100.00
57628;BME280;43451;49.060;10.616;2023-02-18T02:45:42;97465.72;;;8.41;100.00
57628;BME280;43451;49.060;10.616;2023-02-18T02:48:58;97471.81;;;8.37;100.00
57628;BME280;43451;49.060;10.616;2023-02-18T02:51:38;97465.72;;;8.41;100.00
57628;BME280;43451;49.060;10.616;2023-02-18T02:54:13;97470.81;;;8.26;100.00
57628;BME280;43451;49.060;10.616;2023-02-18T02:56:39;97457.78;;;8.32;100.00
57628;BME280;43451;49.060;10.616;2023-02-18T02:59:06;97458.84;;;8.47;100.00
57628;BME280;43451;49.060;10.616;2023-02-18T03:11:08;97454.59;;;8.46;100.00
57628;BME280;43451;49.060;10.616;2023-02-18T03:19:09;97443.94;;;8.37;100.00
57628;BME280;43451;49.060;10.616;2023-02-18T03:21:46;97450.16;;;8.37;100.00
57628;BME280;43451;49.060;10.616;2023-02-18T03:24:19;97434.78;;;8.42;100.00
57628;BME280;43451;49.060;10.616;2023-02-18T03:26:52;97437.56;;;8.26;100.00
57628;BME280;43451;49.060;10.616;2023-02-18T03:29:19;97436.47;;;8.30;100.00
57628;BME280;43451;49.060;10.616;2023-02-18T03:31:49;97434.78;;;8.42;100.00
57628;BME280;43451;49.060;10.616;2023-02-18T03:34:22;97437.19;;;8.47;100.00
57628;BME280;43451;49.060;10.616;2023-02-18T03:36:49;97433.84;;;8.53;100.00
57628;BME280;43451;49.060;10.616;2023-02-18T03:39:17;97443.25;;;8.40;100.00
57628;BME280;43451;49.060;10.616;2023-02-18T03:41:43;97440.44;;;8.56;100.00
57628;BME280;43451;49.060;10.616;2023-02-18T03:44:10;97441.34;;;8.41;100.00
57628;BME280;43451;49.060;10.616;2023-02-18T03:46:38;97441.81;;;8.27;100.00
57628;BME280;43451;49.060;10.616;2023-02-18T03:49:04;97451.09;;;8.26;100.00
57628;BME280;43451;49.060;10.616;2023-02-18T03:51:31;97446.91;;;8.28;100.00
57628;BME280;43451;49.060;10.616;2023-02-18T03:53:57;97447.03;;;8.35;100.00
57628;BME280;43451;49.060;10.616;2023-02-18T03:56:22;97448.75;;;8.44;100.00
57628;BME280;43451;49.060;10.616;2023-02-18T03:58:48;97454.19;;;8.44;100.00
57628;BME280;43451;49.060;10.616;2023-02-18T04:01:14;97447.97;;;8.43;100.00
57628;BME280;43451;49.060;10.616;2023-02-18T04:03:39;97445.03;;;8.52;100.00
57628;BME280;43451;49.060;10.616;2023-02-18T04:06:05;97435.63;;;8.46;100.00
57628;BME280;43451;49.060;10.616;2023-02-18T04:08:31;97435.41;;;8.54;100.00
57628;BME280;43451;49.060;10.616;2023-02-18T04:10:56;97433.03;;;8.53;100.00
57628;BME280;43451;49.060;10.616;2023-02-18T04:13:22;97434.75;;;8.61;100.00
57628;BME280;43451;49.060;10.616;2023-02-18T04:15:51;97440.69;;;8.47;100.00
57628;BME280;43451;49.060;10.616;2023-02-18T04:18:17;97433.47;;;8.55;100.00
57628;BME280;43451;49.060;10.616;2023-02-18T04:20:43;97425.72;;;8.53;100.00
57628;BME280;43451;49.060;10.616;2023-02-18T04:23:11;97432.31;;;8.56;100.00
57628;BME280;43451;49.060;10.616;2023-02-18T04:25:37;97432.03;;;8.61;100.00
57628;BME280;43451;49.060;10.616;2023-02-18T04:28:03;97427.16;;;8.47;100.00
57628;BME280;43451;49.060;10.616;2023-02-18T04:30:29;97421.38;;;8.49;100.00
57628;BME280;43451;49.060;10.616;2023-02-18T04:32:54;97414.81;;;8.50;100.00
57628;BME280;43451;49.060;10.616;2023-02-18T04:35:19;97418.78;;;8.56;100.00
57628;BME280;43451;49.060;10.616;2023-02-18T04:37:45;97422.75;;;8.62;100.00
57628;BME280;43451;49.060;10.616;2023-02-18T04:40:11;97414.94;;;8.57;100.00
57628;BME280;43451;49.060;10.616;2023-02-18T04:42:37;97418.13;;;8.63;100.00
57628;BME280;43451;49.060;10.616;2023-02-18T04:45:02;97425.28;;;8.74;100.00
57628;BME280;43451;49.060;10.616;2023-02-18T04:47:28;97420.06;;;8.85;100.00
57628;BME280;43451;49.060;10.616;2023-02-18T04:49:53;97419.75;;;8.67;100.00
57628;BME280;43451;49.060;10.616;2023-02-18T04:52:19;97413.91;;;8.65;100.00
57628;BME280;43451;49.060;10.616;2023-02-18T04:54:45;97416.56;;;8.62;100.00
57628;BME280;43451;49.060;10.616;2023-02-18T04:57:11;97428.31;;;8.69;100.00
57628;BME280;43451;49.060;10.616;2023-02-18T04:59:37;97422.69;;;8.58;100.00
57628;BME280;43451;49.060;10.616;2023-02-18T05:02:03;97425.06;;;8.60;100.00
57628;BME280;43451;49.060;10.616;2023-02-18T05:04:29;97435.47;;;8.58;100.00
57628;BME280;43451;49.060;10.616;2023-02-18T05:06:54;97428.16;;;8.62;100.00
57628;BME280;43451;49.060;10.616;2023-02-18T05:09:20;97428.94;;;8.63;100.00
57628;BME280;43451;49.060;10.616;2023-02-18T05:11:46;97420.00;;;8.58;100.00
57628;BME280;43451;49.060;10.616;2023-02-18T05:14:14;97422.69;;;8.58;100.00
57628;BME280;43451;49.060;10.616;2023-02-18T05:16:40;97424.78;;;8.46;100.00
57628;BME280;43451;49.060;10.616;2023-02-18T05:19:05;97423.66;;;8.47;100.00
57628;BME280;43451;49.060;10.616;2023-02-18T05:21:31;97426.06;;;8.52;100.00
57628;BME280;43451;49.060;10.616;2023-02-18T05:23:57;97423.00;;;8.53;100.00
57628;BME280;43451;49.060;10.616;2023-02-18T05:26:22;97439.72;;;8.59;100.00
57628;BME280;43451;49.060;10.616;2023-02-18T05:28:48;97430.03;;;8.58;100.00
57628;BME280;43451;49.060;10.616;2023-02-18T05:31:14;97421.88;;;8.54;100.00
57628;BME280;43451;49.060;10.616;2023-02-18T05:33:39;97423.66;;;8.47;100.00
57628;BME280;43451;49.060;10.616;2023-02-18T05:36:05;97433.41;;;8.51;100.00
57628;BME280;43451;49.060;10.616;2023-02-18T05:38:31;97423.47;;;8.59;100.00
57628;BME280;43451;49.060;10.616;2023-02-18T05:40:56;97419.88;;;8.74;100.00
57628;BME280;43451;49.060;10.616;2023-02-18T05:43:21;97425.34;;;8.78;100.00
57628;BME280;43451;49.060;10.616;2023-02-18T05:45:47;97416.56;;;8.84;100.00
57628;BME280;43451;49.060;10.616;2023-02-18T05:48:12;97412.41;;;8.68;100.00
57628;BME280;43451;49.060;10.616;2023-02-18T05:50:38;97410.38;;;8.61;100.00
57628;BME280;43451;49.060;10.616;2023-02-18T05:53:04;97416.63;;;8.65;100.00
57628;BME280;43451;49.060;10.616;2023-02-18T05:55:29;97415.19;;;8.71;100.00
57628;BME280;43451;49.060;10.616;2023-02-18T05:57:55;97408.16;;;8.67;100.00
57628;BME280;43451;49.060;10.616;2023-02-18T06:00:20;97402.69;;;8.63;100.00
57628;BME280;43451;49.060;10.616;2023-02-18T06:02:46;97401.03;;;8.58;100.00
57628;BME280;43451;49.060;10.616;2023-02-18T06:05:11;97407.22;;;8.59;100.00
57628;BME280;43451;49.060;10.616;2023-02-18T06:07:37;97404.16;;;8.60;100.00
57628;BME280;43451;49.060;10.616;2023-02-18T06:10:04;97402.69;;;8.63;100.00
57628;BME280;43451;49.060;10.616;2023-02-18T06:12:29;97403.31;;;8.79;100.00
57628;BME280;43451;49.060;10.616;2023-02-18T06:14:55;97405.00;;;8.65;100.00
57628;BME280;43451;49.060;10.616;2023-02-18T06:17:20;97416.50;;;8.58;100.00
57628;BME280;43451;49.060;10.616;2023-02-18T06:19:47;97417.66;;;8.80;100.00
57628;BME280;43451;49.060;10.616;2023-02-18T06:22:12;97418.75;;;8.75;100.00
57628;BME280;43451;49.060;10.616;2023-02-18T06:24:38;97423.13;;;8.83;100.00
57628;BME280;43451;49.060;10.616;2023-02-18T06:27:03;97431.91;;;8.77;100.00
57628;BME280;43451;49.060;10.616;2023-02-18T06:29:29;97427.47;;;8.65;100.00
57628;BME280;43451;49.060;10.616;2023-02-18T06:31:56;97427.47;;;8.65;100.00
57628;BME280;43451;49.060;10.616;2023-02-18T06:34:22;97422.41;;;8.64;100.00
57628;BME280;43451;49.060;10.616;2023-02-18T06:36:47;97419.81;;;8.71;100.00
57628;BME280;43451;49.060;10.616;2023-02-18T06:39:13;97424.94;;;8.76;100.00
57628;BME280;43451;49.060;10.616;2023-02-18T06:41:38;97426.00;;;8.71;100.00
57628;BME280;43451;49.060;10.616;2023-02-18T06:44:05;97409.03;;;8.74;100.00
57628;BME280;43451;49.060;10.616;2023-02-18T06:46:30;97413.91;;;8.65;100.00
57628;BME280;43451;49.060;10.616;2023-02-18T06:48:56;97414.88;;;8.76;100.00
57628;BME280;43451;49.060;10.616;2023-02-18T06:51:22;97413.00;;;8.80;100.00
57628;BME280;43451;49.060;10.616;2023-02-18T06:53:47;97409.47;;;8.76;100.00
57628;BME280;43451;49.060;10.616;2023-02-18T06:56:12;97409.03;;;8.74;100.00
57628;BME280;43451;49.060;10.616;2023-02-18T06:58:38;97399.47;;;8.80;100.00
57628;BME280;43451;49.060;10.616;2023-02-18T07:01:04;97389.78;;;8.79;100.00
57628;BME280;43451;49.060;10.616;2023-02-18T07:03:29;97384.25;;;8.72;100.00
57628;BME280;43451;49.060;10.616;2023-02-18T07:05:55;97386.94;;;8.95;100.00
57628;BME280;43451;49.060;10.616;2023-02-18T07:08:20;97382.28;;;8.96;100.00
57628;BME280;43451;49.060;10.616;2023-02-18T07:10:46;97391.03;;;8.86;100.00
57628;BME280;43451;49.060;10.616;2023-02-18T07:13:12;97386.34;;;8.82;100.00
57628;BME280;43451;49.060;10.616;2023-02-18T07:15:38;97386.75;;;8.84;100.00
57628;BME280;43451;49.060;10.616;2023-02-18T07:18:03;97386.16;;;8.95;100.00
57628;BME280;43451;49.060;10.616;2023-02-18T07:20:29;97379.56;;;8.96;100.00
57628;BME280;43451;49.060;10.616;2023-02-18T07:22:54;97378.28;;;8.86;100.00
57628;BME280;43451;49.060;10.616;2023-02-18T07:25:20;97367.59;;;8.97;100.00
57628;BME280;43451;49.060;10.616;2023-02-18T07:27:46;97383.75;;;8.90;100.00
57628;BME280;43451;49.060;10.616;2023-02-18T07:30:11;97377.28;;;8.98;100.00
57628;BME280;43451;49.060;10.616;2023-02-18T07:32:37;97376.09;;;8.95;100.00
57628;BME280;43451;49.060;10.616;2023-02-18T07:35:04;97373.72;;;8.94;100.00
57628;BME280;43451;49.060;10.616;2023-02-18T07:37:30;97366.84;;;9.00;100.00
57628;BME280;43451;49.060;10.616;2023-02-18T07:39:56;97364.25;;;8.80;100.00
57628;BME280;43451;49.060;10.616;2023-02-18T07:42:21;97369.38;;;8.86;100.00
57628;BME280;43451;49.060;10.616;2023-02-18T07:44:47;97374.59;;;8.98;100.00
57628;BME280;43451;49.060;10.616;2023-02-18T07:47:14;97364.66;;;9.09;100.00
57628;BME280;43451;49.060;10.616;2023-02-18T07:49:41;97358.84;;;9.07;100.00
57628;BME280;43451;49.060;10.616;2023-02-18T07:52:07;97358.59;;;9.19;100.00
57628;BME280;43451;49.060;10.616;2023-02-18T07:54:32;97358.31;;;8.98;100.00
57628;BME280;43451;49.060;10.616;2023-02-18T07:56:58;97353.53;;;9.14;100.00
57628;BME280;43451;49.060;10.616;2023-02-18T07:59:23;97357.06;;;9.18;100.00
57628;BME280;43451;49.060;10.616;2023-02-18T08:01:49;97358.13;;;9.40;100.00
57628;BME280;43451;49.060;10.616;2023-02-18T08:04:14;97346.47;;;9.36;100.00
57628;BME280;43451;49.060;10.616;2023-02-18T08:06:42;97353.09;;;9.39;100.00
57628;BME280;43451;49.060;10.616;2023-02-18T08:09:10;97346.50;;;9.40;100.00
57628;BME280;43451;49.060;10.616;2023-02-18T08:11:36;97354.81;;;9.54;100.00
57628;BME280;43451;49.060;10.616;2023-02-18T08:14:02;97347.09;;;9.56;100.00
57628;BME280;43451;49.060;10.616;2023-02-18T08:16:28;97360.66;;;9.56;100.00
57628;BME280;43451;49.060;10.616;2023-02-18T08:18:53;97348.78;;;9.38;100.00
57628;BME280;43451;49.060;10.616;2023-02-18T08:21:21;97343.56;;;9.52;100.00
57628;BME280;43451;49.060;10.616;2023-02-18T08:23:47;97340.50;;;9.57;100.00
57628;BME280;43451;49.060;10.616;2023-02-18T08:26:14;97337.44;;;9.59;100.00
57628;BME280;43451;49.060;10.616;2023-02-18T08:28:39;97336.84;;;9.76;100.00
57628;BME280;43451;49.060;10.616;2023-02-18T08:31:05;97334.38;;;9.64;100.00
57628;BME280;43451;49.060;10.616;2023-02-18T08:33:31;97329.66;;;9.57;100.00
57628;BME280;43451;49.060;10.616;2023-02-18T08:35:56;97325.53;;;9.70;100.00
57628;BME280;43451;49.060;10.616;2023-02-18T08:38:22;97319.75;;;9.72;100.00
57628;BME280;43451;49.060;10.616;2023-02-18T08:40:49;97320.00;;;9.93;100.00
57628;BME280;43451;49.060;10.616;2023-02-18T08:43:16;97321.06;;;9.85;100.00
57628;BME280;43451;49.060;10.616;2023-02-18T08:45:42;97311.16;;;10.00;100.00
57628;BME280;43451;49.060;10.616;2023-02-18T08:48:10;97302.94;;;9.93;100.00
57628;BME280;43451;49.060;10.616;2023-02-18T08:50:36;97311.94;;;10.04;100.00
57628;BME280;43451;49.060;10.616;2023-02-18T08:53:03;97305.03;;;10.10;100.00
57628;BME280;43451;49.060;10.616;2023-02-18T08:55:29;97305.09;;;10.17;100.00
57628;BME280;43451;49.060;10.616;2023-02-18T08:57:55;97299.28;;;10.15;100.00
57628;BME280;43451;49.060;10.616;2023-02-18T09:00:21;97295.72;;;10.11;100.00
57628;BME280;43451;49.060;10.616;2023-02-18T09:02:46;97297.56;;;10.00;100.00
57628;BME280;43451;49.060;10.616;2023-02-18T09:05:13;97294.22;;;10.17;100.00
57628;BME280;43451;49.060;10.616;2023-02-18T09:07:39;97295.09;;;10.25;100.00
57628;BME280;43451;49.060;10.616;2023-02-18T09:10:06;97301.38;;;9.95;100.00
57628;BME280;43451;49.060;10.616;2023-02-18T09:12:32;97284.75;;;9.97;100.00
57628;BME280;43451;49.060;10.616;2023-02-18T09:14:57;97290.69;;;10.10;100.00
57628;BME280;43451;49.060;10.616;2023-02-18T09:17:23;97290.66;;;10.47;100.00
57628;BME280;43451;49.060;10.616;2023-02-18T09:19:48;97273.63;;;10.57;100.00
57628;BME280;43451;49.060;10.616;2023-02-18T09:22:13;97270.38;;;10.92;100.00
57628;BME280;43451;49.060;10.616;2023-02-18T09:24:40;97275.84;;;11.03;100.00
57628;BME280;43451;49.060;10.616;2023-02-18T09:27:06;97277.47;;;11.11;100.00
57628;BME280;43451;49.060;10.616;2023-02-18T09:29:32;97272.03;;;11.11;100.00
57628;BME280;43451;49.060;10.616;2023-02-18T09:32:02;97259.50;;;10.96;100.00
57628;BME280;43451;49.060;10.616;2023-02-18T09:34:27;97263.25;;;10.70;100.00
57628;BME280;43451;49.060;10.616;2023-02-18T09:36:53;97267.22;;;10.87;100.00
57628;BME280;43451;49.060;10.616;2023-02-18T09:39:19;97245.78;;;10.75;100.00
57628;BME280;43451;49.060;10.616;2023-02-18T09:41:50;97241.97;;;10.83;100.00
57628;BME280;43451;49.060;10.616;2023-02-18T09:44:26;97242.44;;;10.99;100.00
57628;BME280;43451;49.060;10.616;2023-02-18T09:49:22;97231.91;;;10.94;100.00
57628;BME280;43451;49.060;10.616;2023-02-18T09:51:49;97233.41;;;10.81;100.00
57628;BME280;43451;49.060;10.616;2023-02-18T09:54:17;97221.31;;;10.71;100.00
57628;BME280;43451;49.060;10.616;2023-02-18T09:56:44;97222.06;;;10.64;100.00
57628;BME280;43451;49.060;10.616;2023-02-18T09:59:16;97231.38;;;10.63;100.00
57628;BME280;43451;49.060;10.616;2023-02-18T10:01:45;97227.59;;;10.79;100.00
57628;BME280;43451;49.060;10.616;2023-02-18T10:04:16;97240.28;;;10.60;100.00
57628;BME280;43451;49.060;10.616;2023-02-18T10:06:44;97240.59;;;10.48;100.00
57628;BME280;43451;49.060;10.616;2023-02-18T10:09:20;97251.59;;;10.69;100.00
57628;BME280;43451;49.060;10.616;2023-02-18T10:11:54;97248.06;;;10.65;100.00
57628;BME280;43451;49.060;10.616;2023-02-18T10:14:20;97267.78;;;10.55;100.00
57628;BME280;43451;49.060;10.616;2023-02-18T10:16:47;97264.72;;;10.57;100.00
57628;BME280;43451;49.060;10.616;2023-02-18T10:19:19;97264.75;;;10.60;100.00
57628;BME280;43451;49.060;10.616;2023-02-18T10:21:46;97266.03;;;10.81;100.00
57628;BME280;43451;49.060;10.616;2023-02-18T10:24:33;97264.94;;;10.92;100.00
57628;BME280;43451;49.060;10.616;2023-02-18T10:27:00;97265.75;;;11.00;100.00
57628;BME280;43451;49.060;10.616;2023-02-18T10:29:28;97267.91;;;10.69;100.00
57628;BME280;43451;49.060;10.616;2023-02-18T10:32:32;97275.28;;;10.69;100.00
57628;BME280;43451;49.060;10.616;2023-02-18T10:43:01;97246.44;;;11.23;100.00
57628;BME280;43451;49.060;10.616;2023-02-18T10:45:43;97236.38;;;11.38;100.00
57628;BME280;43451;49.060;10.616;2023-02-18T10:50:46;97249.13;;;11.16;100.00
57628;BME280;43451;49.060;10.616;2023-02-18T10:53:23;97253.53;;;11.49;100.00
57628;BME280;43451;49.060;10.616;2023-02-18T10:55:52;97248.84;;;11.39;100.00
57628;BME280;43451;49.060;10.616;2023-02-18T10:58:46;97240.22;;;11.23;100.00
57628;BME280;43451;49.060;10.616;2023-02-18T11:01:19;97237.09;;;11.13;100.00
57628;BME280;43451;49.060;10.616;2023-02-18T11:03:47;97227.00;;;11.21;100.00
57628;BME280;43451;49.060;10.616;2023-02-18T11:06:36;97218.09;;;11.31;100.00
57628;BME280;43451;49.060;10.616;2023-02-18T11:09:02;97210.72;;;11.32;100.00
57628;BME280;43451;49.060;10.616;2023-02-18T11:11:36;97223.56;;;11.38;100.00
57628;BME280;43451;49.060;10.616;2023-02-18T11:14:04;97203.78;;;11.63;98.59
57628;BME280;43451;49.060;10.616;2023-02-18T11:16:41;97204.19;;;11.58;98.59
57628;BME280;43451;49.060;10.616;2023-02-18T11:19:33;97201.41;;;11.36;99.83
57628;BME280;43451;49.060;10.616;2023-02-18T11:24:44;97219.59;;;11.18;99.60
57628;BME280;43451;49.060;10.616;2023-02-18T11:27:45;97212.59;;;11.13;100.00
57628;BME280;43451;49.060;10.616;2023-02-18T11:30:20;97197.44;;;11.12;100.00
57628;BME280;43451;49.060;10.616;2023-02-18T11:33:00;97204.47;;;11.28;100.00
57628;BME280;43451;49.060;10.616;2023-02-18T11:35:29;97206.00;;;11.11;98.01
57628;BME280;43451;49.060;10.616;2023-02-18T11:37:58;97211.78;;;11.09;96.46
57628;BME280;43451;49.060;10.616;2023-02-18T11:40:28;97199.44;;;11.23;96.40
57628;BME280;43451;49.060;10.616;2023-02-18T11:43:14;97216.97;;;11.36;94.47
57628;BME280;43451;49.060;10.616;2023-02-18T11:45:40;97204.91;;;11.48;91.38
57628;BME280;43451;49.060;10.616;2023-02-18T11:48:17;97204.53;;;11.46;93.67
57628;BME280;43451;49.060;10.616;2023-02-18T11:50:44;97213.06;;;11.44;91.11
57628;BME280;43451;49.060;10.616;2023-02-18T11:53:36;97206.44;;;11.34;90.42
57628;BME280;43451;49.060;10.616;2023-02-18T11:56:15;97179.25;;;11.34;88.36
57628;BME280;43451;49.060;10.616;2023-02-18T11:58:44;97185.91;;;11.55;87.56
57628;BME280;43451;49.060;10.616;2023-02-18T12:01:29;97181.25;;;11.62;91.02
57628;BME280;43451;49.060;10.616;2023-02-18T12:04:11;97203.44;;;11.68;87.03
57628;BME280;43451;49.060;10.616;2023-02-18T12:09:35;97152.47;;;11.76;86.82
57628;BME280;43451;49.060;10.616;2023-02-18T12:12:12;97171.56;;;11.83;87.67
57628;BME280;43451;49.060;10.616;2023-02-18T12:14:40;97182.06;;;11.81;85.64
57628;BME280;43451;49.060;10.616;2023-02-18T12:25:32;97168.88;;;11.87;87.78
57628;BME280;43451;49.060;10.616;2023-02-18T12:34:18;97143.94;;;11.95;89.15
57628;BME280;43451;49.060;10.616;2023-02-18T12:39:42;97147.84;;;11.98;88.25
57628;BME280;43451;49.060;10.616;2023-02-18T12:43:18;97127.63;;;11.74;88.15
57628;BME280;43451;49.060;10.616;2023-02-18T12:48:24;97142.00;;;11.89;86.90
57628;BME280;43451;49.060;10.616;2023-02-18T12:51:05;97145.91;;;11.98;87.11
57628;BME280;43451;49.060;10.616;2023-02-18T12:57:08;97136.19;;;12.12;86.26
57628;BME280;43451;49.060;10.616;2023-02-18T13:07:35;97130.72;;;12.01;85.26
57628;BME280;43451;49.060;10.616;2023-02-18T13:13:12;97133.84;;;11.92;87.56
57628;BME280;43451;49.060;10.616;2023-02-18T13:18:28;97121.78;;;11.97;85.69
57628;BME280;43451;49.060;10.616;2023-02-18T13:20:58;97125.25;;;11.72;87.04
57628;BME280;43451;49.060;10.616;2023-02-18T13:23:32;97133.84;;;11.89;86.12
57628;BME280;43451;49.060;10.616;2023-02-18T13:26:01;97122.19;;;11.88;88.01
57628;BME280;43451;49.060;10.616;2023-02-18T13:28:40;97139.28;;;12.10;88.78
57628;BME280;43451;49.060;10.616;2023-02-18T13:34:20;97109.72;;;12.16;87.30
57628;BME280;43451;49.060;10.616;2023-02-18T13:39:54;97114.00;;;11.74;87.41
57628;BME280;43451;49.060;10.616;2023-02-18T13:47:44;97142.41;;;11.80;86.95
57628;BME280;43451;49.060;10.616;2023-02-18T13:55:30;97124.47;;;11.57;90.70
57628;BME280;43451;49.060;10.616;2023-02-18T13:57:58;97110.50;;;11.48;92.48
57628;BME280;43451;49.060;10.616;2023-02-18T14:00:34;97122.47;;;11.26;91.27
57628;BME280;43451;49.060;10.616;2023-02-18T14:03:30;97122.13;;;11.42;91.07
57628;BME280;43451;49.060;10.616;2023-02-18T14:05:58;97103.47;;;11.40;92.50
57628;BME280;43451;49.060;10.616;2023-02-18T14:08:38;97105.44;;;11.50;91.89
57628;BME280;43451;49.060;10.616;2023-02-18T14:13:48;97108.56;;;11.74;89.81
57628;BME280;43451;49.060;10.616;2023-02-18T14:16:14;97107.38;;;11.68;91.92
57628;BME280;43451;49.060;10.616;2023-02-18T14:28:42;97105.44;;;11.36;91.96
57628;BME280;43451;49.060;10.616;2023-02-18T14:38:53;97112.81;;;11.50;90.27
57628;BME280;43451;49.060;10.616;2023-02-18T14:50:02;97120.94;;;11.18;92.19
57628;BME280;43451;49.060;10.616;2023-02-18T14:52:38;97108.88;;;11.11;93.25
57628;BME280;43451;49.060;10.616;2023-02-18T14:55:34;97108.09;;;11.14;92.81
57628;BME280;43451;49.060;10.616;2023-02-18T14:58:16;97129.50;;;11.20;91.28
57628;BME280;43451;49.060;10.616;2023-02-18T15:00:48;97117.03;;;11.19;92.82
57628;BME280;43451;49.060;10.616;2023-02-18T15:03:17;97120.16;;;11.21;91.37
57628;BME280;43451;49.060;10.616;2023-02-18T15:05:44;97118.22;;;11.18;91.39
57628;BME280;43451;49.060;10.616;2023-02-18T15:08:17;97117.00;;;11.04;92.28
57628;BME280;43451;49.060;10.616;2023-02-18T15:10:58;97117.00;;;11.01;92.78
57628;BME280;43451;49.060;10.616;2023-02-18T15:13:30;97108.88;;;11.08;93.27
57628;BME280;43451;49.060;10.616;2023-02-18T15:16:00;97107.34;;;11.18;93.17
57628;BME280;43451;49.060;10.616;2023-02-18T15:18:36;97108.09;;;11.07;93.23
57628;BME280;43451;49.060;10.616;2023-02-18T15:21:08;97100.72;;;11.11;92.78
57628;BME280;43451;49.060;10.616;2023-02-18T15:23:40;97092.91;;;10.96;94.66